sensor_id;sensor_type;location;lat;lon;timestamp;P1;durP1;ratioP1;P2;durP2;ratioP2
58414;SDS011;44210;42.706;18.344;2023-02-15T00:01:23;11.05;;;4.97;;
58414;SDS011;44210;42.706;18.344;2023-02-15T00:03:49;10.55;;;5.10;;
58414;SDS011;44210;42.706;18.344;2023-02-15T00:06:15;8.77;;;4.65;;
58414;SDS011;44210;42.706;18.344;2023-02-15T00:08:41;8.82;;;4.43;;
58414;SDS011;44210;42.706;18.344;2023-02-15T00:11:08;7.63;;;4.70;;
58414;SDS011;44210;42.706;18.344;2023-02-15T00:13:35;5.80;;;4.00;;
58414;SDS011;44210;42.706;18.344;2023-02-15T00:16:03;7.22;;;3.80;;
58414;SDS011;44210;42.706;18.344;2023-02-15T00:18:30;7.07;;;3.67;;
58414;SDS011;44210;42.706;18.344;2023-02-15T00:20:56;11.80;;;4.30;;
58414;SDS011;44210;42.706;18.344;2023-02-15T00:23:22;7.85;;;4.55;;
58414;SDS011;44210;42.706;18.344;2023-02-15T00:25:48;8.07;;;4.32;;
58414;SDS011;44210;42.706;18.344;2023-02-15T00:28:15;11.63;;;5.25;;
58414;SDS011;44210;42.706;18.344;2023-02-15T00:30:41;10.60;;;4.20;;
58414;SDS011;44210;42.706;18.344;2023-02-15T00:33:07;6.85;;;4.38;;
58414;SDS011;44210;42.706;18.344;2023-02-15T00:35:33;9.48;;;4.90;;
58414;SDS011;44210;42.706;18.344;2023-02-15T00:37:59;11.32;;;5.22;;
58414;SDS011;44210;42.706;18.344;2023-02-15T00:40:26;9.80;;;4.35;;
58414;SDS011;44210;42.706;18.344;2023-02-15T00:42:52;8.68;;;4.70;;
58414;SDS011;44210;42.706;18.344;2023-02-15T00:45:18;9.38;;;4.07;;
58414;SDS011;44210;42.706;18.344;2023-02-15T00:47:46;7.38;;;4.18;;
58414;SDS011;44210;42.706;18.344;2023-02-15T00:50:12;9.93;;;4.47;;
58414;SDS011;44210;42.706;18.344;2023-02-15T00:52:38;7.60;;;4.05;;
58414;SDS011;44210;42.706;18.344;2023-02-15T00:55:04;9.70;;;4.20;;
58414;SDS011;44210;42.706;18.344;2023-02-15T00:57:30;7.22;;;3.97;;
58414;SDS011;44210;42.706;18.344;2023-02-15T00:59:56;13.05;;;6.75;;
58414;SDS011;44210;42.706;18.344;2023-02-15T01:02:22;7.25;;;3.90;;
58414;SDS011;44210;42.706;18.344;2023-02-15T01:04:48;10.98;;;4.60;;
58414;SDS011;44210;42.706;18.344;2023-02-15T01:07:14;13.50;;;4.53;;
58414;SDS011;44210;42.706;18.344;2023-02-15T01:09:40;10.18;;;4.40;;
58414;SDS011;44210;42.706;18.344;2023-02-15T01:12:06;11.88;;;4.95;;
58414;SDS011;44210;42.706;18.344;2023-02-15T01:14:33;11.98;;;5.63;;
58414;SDS011;44210;42.706;18.344;2023-02-15T01:16:59;9.75;;;5.45;;
58414;SDS011;44210;42.706;18.344;2023-02-15T01:19:25;10.77;;;5.47;;
58414;SDS011;44210;42.706;18.344;2023-02-15T01:21:51;13.40;;;5.15;;
58414;SDS011;44210;42.706;18.344;2023-02-15T01:24:17;10.00;;;4.93;;
58414;SDS011;44210;42.706;18.344;2023-02-15T01:26:43;12.40;;;5.03;;
58414;SDS011;44210;42.706;18.344;2023-02-15T01:29:09;10.23;;;4.90;;
58414;SDS011;44210;42.706;18.344;2023-02-15T01:31:35;9.65;;;5.28;;
58414;SDS011;44210;42.706;18.344;2023-02-15T01:34:03;8.77;;;4.43;;
58414;SDS011;44210;42.706;18.344;2023-02-15T01:36:29;11.95;;;5.35;;
58414;SDS011;44210;42.706;18.344;2023-02-15T01:38:56;8.48;;;5.05;;
58414;SDS011;44210;42.706;18.344;2023-02-15T01:41:22;8.30;;;4.25;;
58414;SDS011;44210;42.706;18.344;2023-02-15T01:43:56;7.22;;;4.72;;
58414;SDS011;44210;42.706;18.344;2023-02-15T01:46:24;6.07;;;4.40;;
58414;SDS011;44210;42.706;18.344;2023-02-15T01:48:57;10.52;;;4.97;;
58414;SDS011;44210;42.706;18.344;2023-02-15T01:51:26;10.15;;;4.97;;
58414;SDS011;44210;42.706;18.344;2023-02-15T01:54:05;10.43;;;4.88;;
58414;SDS011;44210;42.706;18.344;2023-02-15T01:56:33;8.15;;;4.80;;
58414;SDS011;44210;42.706;18.344;2023-02-15T01:59:02;12.85;;;5.18;;
58414;SDS011;44210;42.706;18.344;2023-02-15T02:01:30;7.75;;;4.47;;
58414;SDS011;44210;42.706;18.344;2023-02-15T02:04:10;9.18;;;4.65;;
58414;SDS011;44210;42.706;18.344;2023-02-15T02:06:37;8.75;;;5.20;;
58414;SDS011;44210;42.706;18.344;2023-02-15T02:09:03;8.70;;;5.15;;
58414;SDS011;44210;42.706;18.344;2023-02-15T02:11:29;11.90;;;4.70;;
58414;SDS011;44210;42.706;18.344;2023-02-15T02:13:55;10.35;;;4.68;;
58414;SDS011;44210;42.706;18.344;2023-02-15T02:16:27;15.68;;;5.32;;
58414;SDS011;44210;42.706;18.344;2023-02-15T02:34:44;13.48;;;5.85;;
58414;SDS011;44210;42.706;18.344;2023-02-15T02:39:46;15.55;;;6.53;;
58414;SDS011;44210;42.706;18.344;2023-02-15T02:42:26;17.35;;;6.15;;
58414;SDS011;44210;42.706;18.344;2023-02-15T02:44:54;28.92;;;6.88;;
58414;SDS011;44210;42.706;18.344;2023-02-15T02:47:24;11.55;;;5.60;;
58414;SDS011;44210;42.706;18.344;2023-02-15T02:49:57;12.20;;;5.47;;
58414;SDS011;44210;42.706;18.344;2023-02-15T02:55:18;14.70;;;5.20;;
58414;SDS011;44210;42.706;18.344;2023-02-15T03:00:32;16.50;;;6.40;;
58414;SDS011;44210;42.706;18.344;2023-02-15T03:03:03;19.90;;;7.50;;
58414;SDS011;44210;42.706;18.344;2023-02-15T03:05:32;17.45;;;6.18;;
58414;SDS011;44210;42.706;18.344;2023-02-15T03:07:59;13.15;;;5.32;;
58414;SDS011;44210;42.706;18.344;2023-02-15T03:10:31;14.82;;;6.13;;
58414;SDS011;44210;42.706;18.344;2023-02-15T03:12:57;11.13;;;6.05;;
58414;SDS011;44210;42.706;18.344;2023-02-15T03:15:24;12.07;;;6.30;;
58414;SDS011;44210;42.706;18.344;2023-02-15T03:17:51;11.60;;;5.53;;
58414;SDS011;44210;42.706;18.344;2023-02-15T03:20:24;9.35;;;5.13;;
58414;SDS011;44210;42.706;18.344;2023-02-15T03:22:53;15.18;;;5.22;;
58414;SDS011;44210;42.706;18.344;2023-02-15T03:25:21;11.55;;;4.97;;
58414;SDS011;44210;42.706;18.344;2023-02-15T03:27:55;12.25;;;5.18;;
58414;SDS011;44210;42.706;18.344;2023-02-15T03:30:24;11.98;;;5.32;;
58414;SDS011;44210;42.706;18.344;2023-02-15T03:32:51;19.02;;;5.10;;
58414;SDS011;44210;42.706;18.344;2023-02-15T03:35:18;8.20;;;5.18;;
58414;SDS011;44210;42.706;18.344;2023-02-15T03:37:55;11.20;;;4.65;;
58414;SDS011;44210;42.706;18.344;2023-02-15T03:40:24;12.38;;;4.90;;
58414;SDS011;44210;42.706;18.344;2023-02-15T03:43:14;10.82;;;5.03;;
58414;SDS011;44210;42.706;18.344;2023-02-15T03:45:44;15.45;;;5.95;;
58414;SDS011;44210;42.706;18.344;2023-02-15T03:48:27;14.20;;;5.60;;
58414;SDS011;44210;42.706;18.344;2023-02-15T03:50:55;22.73;;;6.57;;
58414;SDS011;44210;42.706;18.344;2023-02-15T03:53:41;14.95;;;6.72;;
58414;SDS011;44210;42.706;18.344;2023-02-15T03:56:08;10.02;;;6.05;;
58414;SDS011;44210;42.706;18.344;2023-02-15T03:58:34;16.13;;;5.32;;
58414;SDS011;44210;42.706;18.344;2023-02-15T04:01:23;17.30;;;6.72;;
58414;SDS011;44210;42.706;18.344;2023-02-15T04:04:11;17.52;;;6.55;;
58414;SDS011;44210;42.706;18.344;2023-02-15T04:06:40;13.20;;;5.78;;
58414;SDS011;44210;42.706;18.344;2023-02-15T04:09:06;14.40;;;6.45;;
58414;SDS011;44210;42.706;18.344;2023-02-15T04:11:51;18.80;;;5.95;;
58414;SDS011;44210;42.706;18.344;2023-02-15T04:14:17;15.20;;;6.18;;
58414;SDS011;44210;42.706;18.344;2023-02-15T04:17:04;13.48;;;6.93;;
58414;SDS011;44210;42.706;18.344;2023-02-15T04:19:31;18.27;;;6.47;;
58414;SDS011;44210;42.706;18.344;2023-02-15T04:22:16;14.05;;;6.35;;
58414;SDS011;44210;42.706;18.344;2023-02-15T04:25:01;15.90;;;6.43;;
58414;SDS011;44210;42.706;18.344;2023-02-15T04:27:41;14.70;;;6.75;;
58414;SDS011;44210;42.706;18.344;2023-02-15T04:30:08;13.43;;;5.88;;
58414;SDS011;44210;42.706;18.344;2023-02-15T04:32:35;14.25;;;5.90;;
58414;SDS011;44210;42.706;18.344;2023-02-15T04:35:01;15.93;;;7.10;;
58414;SDS011;44210;42.706;18.344;2023-02-15T04:37:28;14.10;;;6.38;;
58414;SDS011;44210;42.706;18.344;2023-02-15T04:39:54;21.98;;;6.53;;
58414;SDS011;44210;42.706;18.344;2023-02-15T04:42:20;11.85;;;6.68;;
58414;SDS011;44210;42.706;18.344;2023-02-15T04:44:46;10.75;;;5.65;;
58414;SDS011;44210;42.706;18.344;2023-02-15T04:47:12;11.95;;;5.88;;
58414;SDS011;44210;42.706;18.344;2023-02-15T04:49:38;15.68;;;6.35;;
58414;SDS011;44210;42.706;18.344;2023-02-15T04:52:04;11.18;;;6.05;;
58414;SDS011;44210;42.706;18.344;2023-02-15T04:54:30;21.63;;;5.75;;
58414;SDS011;44210;42.706;18.344;2023-02-15T04:56:56;15.20;;;6.25;;
58414;SDS011;44210;42.706;18.344;2023-02-15T04:59:22;9.98;;;5.35;;
58414;SDS011;44210;42.706;18.344;2023-02-15T05:01:48;11.18;;;6.22;;
58414;SDS011;44210;42.706;18.344;2023-02-15T05:04:14;12.23;;;6.32;;
58414;SDS011;44210;42.706;18.344;2023-02-15T05:06:40;15.65;;;5.18;;
58414;SDS011;44210;42.706;18.344;2023-02-15T05:09:06;15.27;;;5.38;;
58414;SDS011;44210;42.706;18.344;2023-02-15T05:11:33;19.35;;;6.07;;
58414;SDS011;44210;42.706;18.344;2023-02-15T05:13:59;14.70;;;5.97;;
58414;SDS011;44210;42.706;18.344;2023-02-15T05:16:25;10.38;;;5.00;;
58414;SDS011;44210;42.706;18.344;2023-02-15T05:18:52;11.05;;;5.68;;
58414;SDS011;44210;42.706;18.344;2023-02-15T05:21:18;20.90;;;5.38;;
58414;SDS011;44210;42.706;18.344;2023-02-15T05:23:45;8.77;;;5.90;;
58414;SDS011;44210;42.706;18.344;2023-02-15T05:26:11;13.35;;;4.60;;
58414;SDS011;44210;42.706;18.344;2023-02-15T05:28:56;14.00;;;5.35;;
58414;SDS011;44210;42.706;18.344;2023-02-15T05:31:22;14.68;;;4.95;;
58414;SDS011;44210;42.706;18.344;2023-02-15T05:33:48;13.25;;;4.75;;
58414;SDS011;44210;42.706;18.344;2023-02-15T05:36:14;15.70;;;5.28;;
58414;SDS011;44210;42.706;18.344;2023-02-15T05:38:41;12.18;;;4.88;;
58414;SDS011;44210;42.706;18.344;2023-02-15T05:41:07;13.18;;;5.90;;
58414;SDS011;44210;42.706;18.344;2023-02-15T05:43:34;10.93;;;6.40;;
58414;SDS011;44210;42.706;18.344;2023-02-15T05:46:00;13.43;;;5.15;;
58414;SDS011;44210;42.706;18.344;2023-02-15T05:48:27;13.35;;;5.63;;
58414;SDS011;44210;42.706;18.344;2023-02-15T05:51:00;11.02;;;5.25;;
58414;SDS011;44210;42.706;18.344;2023-02-15T05:53:26;8.82;;;4.65;;
58414;SDS011;44210;42.706;18.344;2023-02-15T05:55:52;9.40;;;5.05;;
58414;SDS011;44210;42.706;18.344;2023-02-15T05:58:23;12.98;;;5.35;;
58414;SDS011;44210;42.706;18.344;2023-02-15T06:00:49;14.85;;;4.82;;
58414;SDS011;44210;42.706;18.344;2023-02-15T06:03:15;8.52;;;5.07;;
58414;SDS011;44210;42.706;18.344;2023-02-15T06:05:41;7.88;;;4.97;;
58414;SDS011;44210;42.706;18.344;2023-02-15T06:08:07;16.27;;;6.45;;
58414;SDS011;44210;42.706;18.344;2023-02-15T06:10:33;10.05;;;5.82;;
58414;SDS011;44210;42.706;18.344;2023-02-15T06:12:59;13.27;;;6.13;;
58414;SDS011;44210;42.706;18.344;2023-02-15T06:15:25;17.10;;;6.20;;
58414;SDS011;44210;42.706;18.344;2023-02-15T06:17:51;17.33;;;6.57;;
58414;SDS011;44210;42.706;18.344;2023-02-15T06:20:18;14.40;;;5.50;;
58414;SDS011;44210;42.706;18.344;2023-02-15T06:22:44;13.55;;;7.53;;
58414;SDS011;44210;42.706;18.344;2023-02-15T06:25:10;21.33;;;6.93;;
58414;SDS011;44210;42.706;18.344;2023-02-15T06:27:36;16.25;;;8.10;;
58414;SDS011;44210;42.706;18.344;2023-02-15T06:30:03;14.40;;;6.32;;
58414;SDS011;44210;42.706;18.344;2023-02-15T06:32:29;15.88;;;6.97;;
58414;SDS011;44210;42.706;18.344;2023-02-15T06:34:55;12.50;;;6.13;;
58414;SDS011;44210;42.706;18.344;2023-02-15T06:37:21;13.23;;;5.45;;
58414;SDS011;44210;42.706;18.344;2023-02-15T06:39:47;9.48;;;4.97;;
58414;SDS011;44210;42.706;18.344;2023-02-15T06:42:14;8.95;;;5.47;;
58414;SDS011;44210;42.706;18.344;2023-02-15T06:44:42;14.20;;;6.30;;
58414;SDS011;44210;42.706;18.344;2023-02-15T06:47:09;12.48;;;5.72;;
58414;SDS011;44210;42.706;18.344;2023-02-15T06:49:36;9.65;;;6.15;;
58414;SDS011;44210;42.706;18.344;2023-02-15T06:52:02;10.00;;;5.50;;
58414;SDS011;44210;42.706;18.344;2023-02-15T06:54:28;13.23;;;5.43;;
58414;SDS011;44210;42.706;18.344;2023-02-15T06:56:54;10.43;;;5.90;;
58414;SDS011;44210;42.706;18.344;2023-02-15T06:59:20;13.75;;;6.07;;
58414;SDS011;44210;42.706;18.344;2023-02-15T07:01:46;11.60;;;5.15;;
58414;SDS011;44210;42.706;18.344;2023-02-15T07:04:14;14.30;;;6.00;;
58414;SDS011;44210;42.706;18.344;2023-02-15T07:06:40;11.27;;;5.65;;
58414;SDS011;44210;42.706;18.344;2023-02-15T07:09:06;10.15;;;5.75;;
58414;SDS011;44210;42.706;18.344;2023-02-15T07:11:32;12.45;;;5.28;;
58414;SDS011;44210;42.706;18.344;2023-02-15T07:14:17;8.52;;;4.95;;
58414;SDS011;44210;42.706;18.344;2023-02-15T07:16:43;9.93;;;5.53;;
58414;SDS011;44210;42.706;18.344;2023-02-15T07:19:09;13.38;;;6.45;;
58414;SDS011;44210;42.706;18.344;2023-02-15T07:21:36;13.25;;;6.13;;
58414;SDS011;44210;42.706;18.344;2023-02-15T07:24:02;12.05;;;6.18;;
58414;SDS011;44210;42.706;18.344;2023-02-15T07:26:28;10.77;;;5.30;;
58414;SDS011;44210;42.706;18.344;2023-02-15T07:28:54;12.45;;;5.55;;
58414;SDS011;44210;42.706;18.344;2023-02-15T07:31:20;9.73;;;5.40;;
58414;SDS011;44210;42.706;18.344;2023-02-15T07:33:46;14.80;;;6.45;;
58414;SDS011;44210;42.706;18.344;2023-02-15T07:36:12;18.35;;;6.65;;
58414;SDS011;44210;42.706;18.344;2023-02-15T07:38:39;10.98;;;5.97;;
58414;SDS011;44210;42.706;18.344;2023-02-15T07:41:07;14.30;;;6.65;;
58414;SDS011;44210;42.706;18.344;2023-02-15T07:43:37;22.23;;;8.60;;
58414;SDS011;44210;42.706;18.344;2023-02-15T07:46:04;16.15;;;7.97;;
58414;SDS011;44210;42.706;18.344;2023-02-15T07:48:30;20.63;;;8.38;;
58414;SDS011;44210;42.706;18.344;2023-02-15T07:51:00;18.15;;;9.63;;
58414;SDS011;44210;42.706;18.344;2023-02-15T07:53:26;18.98;;;8.98;;
58414;SDS011;44210;42.706;18.344;2023-02-15T07:55:53;15.98;;;8.57;;
58414;SDS011;44210;42.706;18.344;2023-02-15T07:58:20;14.48;;;8.05;;
58414;SDS011;44210;42.706;18.344;2023-02-15T08:00:46;14.32;;;8.05;;
58414;SDS011;44210;42.706;18.344;2023-02-15T08:03:24;19.80;;;8.68;;
58414;SDS011;44210;42.706;18.344;2023-02-15T08:05:57;11.30;;;7.65;;
58414;SDS011;44210;42.706;18.344;2023-02-15T08:08:24;13.15;;;7.05;;
58414;SDS011;44210;42.706;18.344;2023-02-15T08:11:00;14.20;;;7.40;;
58414;SDS011;44210;42.706;18.344;2023-02-15T08:13:45;16.58;;;7.45;;
58414;SDS011;44210;42.706;18.344;2023-02-15T08:16:24;19.40;;;8.35;;
58414;SDS011;44210;42.706;18.344;2023-02-15T08:18:51;14.52;;;7.05;;
58414;SDS011;44210;42.706;18.344;2023-02-15T08:21:17;15.50;;;7.50;;
58414;SDS011;44210;42.706;18.344;2023-02-15T08:23:43;14.55;;;7.70;;
58414;SDS011;44210;42.706;18.344;2023-02-15T08:26:09;10.00;;;5.07;;
58414;SDS011;44210;42.706;18.344;2023-02-15T08:28:35;11.40;;;6.15;;
58414;SDS011;44210;42.706;18.344;2023-02-15T08:31:08;12.95;;;5.63;;
58414;SDS011;44210;42.706;18.344;2023-02-15T08:33:34;15.18;;;5.05;;
58414;SDS011;44210;42.706;18.344;2023-02-15T08:36:08;12.85;;;5.10;;
58414;SDS011;44210;42.706;18.344;2023-02-15T08:38:34;9.10;;;5.28;;
58414;SDS011;44210;42.706;18.344;2023-02-15T08:43:35;10.38;;;5.13;;
58414;SDS011;44210;42.706;18.344;2023-02-15T08:46:02;15.50;;;5.93;;
58414;SDS011;44210;42.706;18.344;2023-02-15T08:48:28;15.32;;;5.30;;
58414;SDS011;44210;42.706;18.344;2023-02-15T08:50:54;9.95;;;4.35;;
58414;SDS011;44210;42.706;18.344;2023-02-15T08:53:20;13.35;;;5.65;;
58414;SDS011;44210;42.706;18.344;2023-02-15T08:55:46;15.00;;;5.05;;
58414;SDS011;44210;42.706;18.344;2023-02-15T08:58:16;10.02;;;5.18;;
58414;SDS011;44210;42.706;18.344;2023-02-15T09:00:42;12.40;;;4.85;;
58414;SDS011;44210;42.706;18.344;2023-02-15T09:03:08;9.55;;;5.85;;
58414;SDS011;44210;42.706;18.344;2023-02-15T09:05:34;16.80;;;5.53;;
58414;SDS011;44210;42.706;18.344;2023-02-15T09:08:00;13.60;;;4.88;;
58414;SDS011;44210;42.706;18.344;2023-02-15T09:10:26;13.45;;;5.18;;
58414;SDS011;44210;42.706;18.344;2023-02-15T09:12:52;13.63;;;5.13;;
58414;SDS011;44210;42.706;18.344;2023-02-15T09:15:18;10.15;;;6.43;;
58414;SDS011;44210;42.706;18.344;2023-02-15T09:17:44;12.98;;;5.88;;
58414;SDS011;44210;42.706;18.344;2023-02-15T09:20:11;13.30;;;6.05;;
58414;SDS011;44210;42.706;18.344;2023-02-15T09:22:37;13.40;;;6.32;;
58414;SDS011;44210;42.706;18.344;2023-02-15T09:25:03;12.75;;;7.45;;
58414;SDS011;44210;42.706;18.344;2023-02-15T09:27:29;9.88;;;5.88;;
58414;SDS011;44210;42.706;18.344;2023-02-15T09:29:55;10.98;;;4.75;;
58414;SDS011;44210;42.706;18.344;2023-02-15T09:32:21;18.08;;;5.32;;
58414;SDS011;44210;42.706;18.344;2023-02-15T09:34:47;9.75;;;4.07;;
58414;SDS011;44210;42.706;18.344;2023-02-15T09:37:14;10.13;;;5.30;;
58414;SDS011;44210;42.706;18.344;2023-02-15T09:39:41;10.35;;;5.50;;
58414;SDS011;44210;42.706;18.344;2023-02-15T09:58:11;10.27;;;4.03;;
58414;SDS011;44210;42.706;18.344;2023-02-15T10:11:03;11.95;;;4.25;;
58414;SDS011;44210;42.706;18.344;2023-02-15T10:13:55;11.77;;;3.67;;
58414;SDS011;44210;42.706;18.344;2023-02-15T10:26:47;7.50;;;4.75;;
58414;SDS011;44210;42.706;18.344;2023-02-15T10:34:20;6.30;;;4.05;;
58414;SDS011;44210;42.706;18.344;2023-02-15T10:44:18;6.65;;;4.00;;
58414;SDS011;44210;42.706;18.344;2023-02-15T10:56:56;11.57;;;3.97;;
58414;SDS011;44210;42.706;18.344;2023-02-15T11:02:02;11.05;;;4.40;;
58414;SDS011;44210;42.706;18.344;2023-02-15T11:04:40;14.05;;;4.20;;
58414;SDS011;44210;42.706;18.344;2023-02-15T11:07:17;10.15;;;3.97;;
58414;SDS011;44210;42.706;18.344;2023-02-15T11:09:46;8.93;;;4.25;;
58414;SDS011;44210;42.706;18.344;2023-02-15T11:12:15;12.90;;;4.07;;
58414;SDS011;44210;42.706;18.344;2023-02-15T11:14:44;10.73;;;4.32;;
58414;SDS011;44210;42.706;18.344;2023-02-15T11:17:14;8.07;;;4.00;;
58414;SDS011;44210;42.706;18.344;2023-02-15T11:22:25;9.05;;;4.65;;
58414;SDS011;44210;42.706;18.344;2023-02-15T11:24:51;11.32;;;4.95;;
58414;SDS011;44210;42.706;18.344;2023-02-15T11:27:20;8.27;;;5.15;;
58414;SDS011;44210;42.706;18.344;2023-02-15T11:32:19;14.68;;;6.80;;
58414;SDS011;44210;42.706;18.344;2023-02-15T11:34:49;14.73;;;6.40;;
58414;SDS011;44210;42.706;18.344;2023-02-15T11:37:18;12.70;;;5.68;;
58414;SDS011;44210;42.706;18.344;2023-02-15T11:39:45;11.43;;;4.70;;
58414;SDS011;44210;42.706;18.344;2023-02-15T11:42:17;9.35;;;4.60;;
58414;SDS011;44210;42.706;18.344;2023-02-15T11:47:13;8.43;;;4.75;;
58414;SDS011;44210;42.706;18.344;2023-02-15T11:49:39;7.60;;;3.75;;
58414;SDS011;44210;42.706;18.344;2023-02-15T11:52:06;8.77;;;4.68;;
58414;SDS011;44210;42.706;18.344;2023-02-15T11:54:34;7.60;;;4.10;;
58414;SDS011;44210;42.706;18.344;2023-02-15T11:59:36;6.10;;;3.65;;
58414;SDS011;44210;42.706;18.344;2023-02-15T12:02:24;14.38;;;5.03;;
58414;SDS011;44210;42.706;18.344;2023-02-15T12:04:53;6.78;;;3.50;;
58414;SDS011;44210;42.706;18.344;2023-02-15T12:07:22;7.10;;;3.78;;
58414;SDS011;44210;42.706;18.344;2023-02-15T12:09:52;6.88;;;4.30;;
58414;SDS011;44210;42.706;18.344;2023-02-15T12:14:51;6.60;;;3.75;;
58414;SDS011;44210;42.706;18.344;2023-02-15T12:17:18;6.63;;;4.40;;
58414;SDS011;44210;42.706;18.344;2023-02-15T12:19:46;7.82;;;4.00;;
58414;SDS011;44210;42.706;18.344;2023-02-15T12:22:34;6.28;;;3.83;;
58414;SDS011;44210;42.706;18.344;2023-02-15T12:25:19;5.43;;;3.65;;
58414;SDS011;44210;42.706;18.344;2023-02-15T12:27:46;9.77;;;3.88;;
58414;SDS011;44210;42.706;18.344;2023-02-15T12:32:52;10.20;;;4.15;;
58414;SDS011;44210;42.706;18.344;2023-02-15T12:35:29;11.65;;;3.97;;
58414;SDS011;44210;42.706;18.344;2023-02-15T12:38:19;5.72;;;4.00;;
58414;SDS011;44210;42.706;18.344;2023-02-15T12:40:56;8.23;;;3.88;;
58414;SDS011;44210;42.706;18.344;2023-02-15T12:43:27;8.40;;;4.00;;
58414;SDS011;44210;42.706;18.344;2023-02-15T12:45:53;7.72;;;4.85;;
58414;SDS011;44210;42.706;18.344;2023-02-15T12:48:39;7.13;;;4.50;;
58414;SDS011;44210;42.706;18.344;2023-02-15T12:51:07;6.63;;;4.70;;
58414;SDS011;44210;42.706;18.344;2023-02-15T12:53:34;5.63;;;4.43;;
58414;SDS011;44210;42.706;18.344;2023-02-15T12:56:04;11.98;;;4.55;;
58414;SDS011;44210;42.706;18.344;2023-02-15T12:58:40;9.07;;;3.85;;
58414;SDS011;44210;42.706;18.344;2023-02-15T13:01:11;6.28;;;4.03;;
58414;SDS011;44210;42.706;18.344;2023-02-15T13:03:39;5.47;;;3.65;;
58414;SDS011;44210;42.706;18.344;2023-02-15T13:06:14;8.18;;;3.83;;
58414;SDS011;44210;42.706;18.344;2023-02-15T13:08:46;5.65;;;3.75;;
58414;SDS011;44210;42.706;18.344;2023-02-15T13:11:13;5.20;;;3.67;;
58414;SDS011;44210;42.706;18.344;2023-02-15T13:16:40;9.23;;;4.80;;
58414;SDS011;44210;42.706;18.344;2023-02-15T13:19:27;5.72;;;4.63;;
58414;SDS011;44210;42.706;18.344;2023-02-15T13:21:55;9.30;;;6.82;;
58414;SDS011;44210;42.706;18.344;2023-02-15T13:24:29;10.07;;;7.05;;
58414;SDS011;44210;42.706;18.344;2023-02-15T13:26:59;15.30;;;9.68;;
58414;SDS011;44210;42.706;18.344;2023-02-15T13:29:26;6.43;;;4.50;;
58414;SDS011;44210;42.706;18.344;2023-02-15T13:31:53;5.35;;;3.53;;
58414;SDS011;44210;42.706;18.344;2023-02-15T13:34:22;8.30;;;4.00;;
58414;SDS011;44210;42.706;18.344;2023-02-15T13:39:55;8.65;;;5.18;;
58414;SDS011;44210;42.706;18.344;2023-02-15T13:42:28;15.73;;;11.25;;
58414;SDS011;44210;42.706;18.344;2023-02-15T13:47:34;7.95;;;4.13;;
58414;SDS011;44210;42.706;18.344;2023-02-15T13:52:31;5.72;;;4.45;;
58414;SDS011;44210;42.706;18.344;2023-02-15T13:58:01;9.52;;;5.22;;
58414;SDS011;44210;42.706;18.344;2023-02-15T14:00:44;10.40;;;7.50;;
58414;SDS011;44210;42.706;18.344;2023-02-15T14:11:16;10.90;;;4.90;;
58414;SDS011;44210;42.706;18.344;2023-02-15T14:16:27;6.40;;;4.50;;
58414;SDS011;44210;42.706;18.344;2023-02-15T14:21:57;4.78;;;4.13;;
58414;SDS011;44210;42.706;18.344;2023-02-15T14:24:29;10.90;;;5.03;;
58414;SDS011;44210;42.706;18.344;2023-02-15T14:27:04;8.93;;;6.32;;
58414;SDS011;44210;42.706;18.344;2023-02-15T14:32:13;20.52;;;5.80;;
58414;SDS011;44210;42.706;18.344;2023-02-15T14:35:15;6.68;;;4.03;;
58414;SDS011;44210;42.706;18.344;2023-02-15T14:43:10;6.95;;;4.25;;
58414;SDS011;44210;42.706;18.344;2023-02-15T14:45:55;9.75;;;5.60;;
58414;SDS011;44210;42.706;18.344;2023-02-15T14:48:24;9.23;;;4.38;;
58414;SDS011;44210;42.706;18.344;2023-02-15T14:50:52;8.30;;;4.03;;
58414;SDS011;44210;42.706;18.344;2023-02-15T14:58:35;10.80;;;4.78;;
58414;SDS011;44210;42.706;18.344;2023-02-15T15:01:08;6.97;;;4.53;;
58414;SDS011;44210;42.706;18.344;2023-02-15T15:03:35;7.13;;;3.97;;
58414;SDS011;44210;42.706;18.344;2023-02-15T15:06:02;16.65;;;6.22;;
58414;SDS011;44210;42.706;18.344;2023-02-15T15:08:38;11.65;;;6.55;;
58414;SDS011;44210;42.706;18.344;2023-02-15T15:14:00;12.25;;;6.38;;
58414;SDS011;44210;42.706;18.344;2023-02-15T15:18:53;10.48;;;6.32;;
58414;SDS011;44210;42.706;18.344;2023-02-15T15:24:05;15.10;;;8.63;;
58414;SDS011;44210;42.706;18.344;2023-02-15T15:26:32;15.18;;;6.55;;
58414;SDS011;44210;42.706;18.344;2023-02-15T15:29:02;7.60;;;6.07;;
58414;SDS011;44210;42.706;18.344;2023-02-15T15:39:26;12.90;;;7.82;;
58414;SDS011;44210;42.706;18.344;2023-02-15T15:42:01;10.27;;;7.35;;
58414;SDS011;44210;42.706;18.344;2023-02-15T15:49:44;13.82;;;9.05;;
58414;SDS011;44210;42.706;18.344;2023-02-15T15:52:17;13.90;;;7.75;;
58414;SDS011;44210;42.706;18.344;2023-02-15T15:54:44;11.05;;;7.63;;
58414;SDS011;44210;42.706;18.344;2023-02-15T15:59:56;10.13;;;6.43;;
58414;SDS011;44210;42.706;18.344;2023-02-15T16:02:25;9.48;;;7.00;;
58414;SDS011;44210;42.706;18.344;2023-02-15T16:04:52;10.05;;;6.90;;
58414;SDS011;44210;42.706;18.344;2023-02-15T16:10:01;18.58;;;5.43;;
58414;SDS011;44210;42.706;18.344;2023-02-15T16:12:29;7.53;;;4.97;;
58414;SDS011;44210;42.706;18.344;2023-02-15T16:14:56;7.25;;;5.35;;
58414;SDS011;44210;42.706;18.344;2023-02-15T16:17:23;7.82;;;5.35;;
58414;SDS011;44210;42.706;18.344;2023-02-15T16:19:50;7.20;;;5.25;;
58414;SDS011;44210;42.706;18.344;2023-02-15T16:22:20;13.25;;;6.65;;
58414;SDS011;44210;42.706;18.344;2023-02-15T16:27:28;15.13;;;6.85;;
58414;SDS011;44210;42.706;18.344;2023-02-15T16:29:57;10.88;;;7.07;;
58414;SDS011;44210;42.706;18.344;2023-02-15T16:32:24;10.45;;;7.10;;
58414;SDS011;44210;42.706;18.344;2023-02-15T16:35:01;10.10;;;6.95;;
58414;SDS011;44210;42.706;18.344;2023-02-15T16:37:31;10.45;;;7.00;;
58414;SDS011;44210;42.706;18.344;2023-02-15T16:39:57;12.90;;;7.82;;
58414;SDS011;44210;42.706;18.344;2023-02-15T16:42:23;12.80;;;8.18;;
58414;SDS011;44210;42.706;18.344;2023-02-15T16:44:53;15.05;;;8.43;;
58414;SDS011;44210;42.706;18.344;2023-02-15T16:47:25;14.48;;;9.40;;
58414;SDS011;44210;42.706;18.344;2023-02-15T16:49:52;14.57;;;8.95;;
58414;SDS011;44210;42.706;18.344;2023-02-15T16:52:23;11.68;;;9.05;;
58414;SDS011;44210;42.706;18.344;2023-02-15T16:54:52;14.20;;;9.15;;
58414;SDS011;44210;42.706;18.344;2023-02-15T16:57:20;9.85;;;8.15;;
58414;SDS011;44210;42.706;18.344;2023-02-15T16:59:49;14.68;;;7.95;;
58414;SDS011;44210;42.706;18.344;2023-02-15T17:02:18;13.35;;;10.05;;
58414;SDS011;44210;42.706;18.344;2023-02-15T17:04:45;15.25;;;9.35;;
58414;SDS011;44210;42.706;18.344;2023-02-15T17:09:50;9.88;;;7.10;;
58414;SDS011;44210;42.706;18.344;2023-02-15T17:17:51;11.38;;;8.63;;
58414;SDS011;44210;42.706;18.344;2023-02-15T17:20:17;11.35;;;7.38;;
58414;SDS011;44210;42.706;18.344;2023-02-15T17:22:44;8.90;;;7.00;;
58414;SDS011;44210;42.706;18.344;2023-02-15T17:25:16;11.48;;;7.95;;
58414;SDS011;44210;42.706;18.344;2023-02-15T17:27:44;9.98;;;8.55;;
58414;SDS011;44210;42.706;18.344;2023-02-15T17:30:37;12.80;;;9.18;;
58414;SDS011;44210;42.706;18.344;2023-02-15T17:33:03;15.52;;;8.45;;
58414;SDS011;44210;42.706;18.344;2023-02-15T17:35:30;11.90;;;8.43;;
58414;SDS011;44210;42.706;18.344;2023-02-15T17:38:01;20.88;;;9.43;;
58414;SDS011;44210;42.706;18.344;2023-02-15T17:40:29;14.50;;;10.02;;